Time;durP1;ratioP1;P1;durP2;ratioP2;P2;SDS_P1;SDS_P2;PMS_P1;PMS_P2;Temp;Humidity;BMP_temperature;BMP_pressure;BME280_temperature;BME280_humidity;BME280_pressure;Samples;Min_cycle;Max_cycle;Signal;HPM_P1;HPM_P2
2022/12/27 00:01:19;;;;;;;0.80;0.80;;;9.20;99.90;;;;;;5106204;28;20644;-76
2022/12/27 00:03:47;;;;;;;1.00;0.77;;;9.20;99.90;;;;;;5101106;28;20210;-76
2022/12/27 00:06:16;;;;;;;0.70;0.70;;;9.20;99.90;;;;;;5115652;28;20202;-78
2022/12/27 00:08:44;;;;;;;0.77;0.70;;;9.20;99.90;;;;;;5106657;28;20261;-78
2022/12/27 00:11:14;;;;;;;0.77;0.70;;;9.20;99.90;;;;;;5113147;28;20196;-76
2022/12/27 00:13:41;;;;;;;0.50;0.50;;;9.20;99.90;;;;;;5104659;28;20752;-77
2022/12/27 00:16:10;;;;;;;0.60;0.60;;;9.20;99.90;;;;;;5106749;28;20195;-77
2022/12/27 00:18:38;;;;;;;0.60;0.60;;;9.20;99.90;;;;;;5116450;28;20217;-78
2022/12/27 00:21:07;;;;;;;0.50;0.50;;;9.20;99.90;;;;;;5107858;28;20279;-76
2022/12/27 00:23:37;;;;;;;0.60;0.60;;;9.20;99.90;;;;;;5105301;28;20217;-77
2022/12/27 00:26:08;;;;;;;0.60;0.60;;;9.20;99.90;;;;;;5109749;28;20221;-77
2022/12/27 00:28:36;;;;;;;0.60;0.60;;;9.10;99.90;;;;;;5109791;28;20201;-77
2022/12/27 00:31:05;;;;;;;0.83;0.83;;;9.10;99.90;;;;;;5103257;28;20202;-77
2022/12/27 00:33:34;;;;;;;0.60;0.60;;;9.00;99.90;;;;;;5116719;28;20229;-75
2022/12/27 00:36:02;;;;;;;0.83;0.83;;;8.80;99.90;;;;;;5113584;28;20231;-77
2022/12/27 00:38:29;;;;;;;0.80;0.80;;;8.80;99.90;;;;;;5093853;28;20283;-77
2022/12/27 00:40:56;;;;;;;0.73;0.73;;;8.60;99.90;;;;;;5105060;28;20202;-78
2022/12/27 00:43:23;;;;;;;0.70;0.70;;;8.60;99.90;;;;;;5110975;28;20222;-77
2022/12/27 00:45:51;;;;;;;0.60;0.60;;;8.50;99.90;;;;;;5107168;28;20199;-79
2022/12/27 00:48:19;;;;;;;0.60;0.60;;;8.50;99.90;;;;;;5115070;28;20209;-77
2022/12/27 00:50:46;;;;;;;0.50;0.50;;;8.40;99.90;;;;;;5111706;27;20199;-76
2022/12/27 00:53:14;;;;;;;0.60;0.60;;;8.40;99.90;;;;;;5111515;28;20240;-77
2022/12/27 00:55:43;;;;;;;0.83;0.83;;;8.30;99.90;;;;;;5114502;28;20354;-77
2022/12/27 00:58:10;;;;;;;0.60;0.60;;;8.30;99.90;;;;;;5108714;28;20223;-77
2022/12/27 01:00:40;;;;;;;0.77;0.77;;;8.30;99.90;;;;;;5116607;28;20198;-76
2022/12/27 01:03:08;;;;;;;0.80;0.80;;;8.20;99.90;;;;;;5109694;28;20226;-78
2022/12/27 01:05:37;;;;;;;1.00;0.70;;;8.20;99.90;;;;;;5105586;28;20202;-77
2022/12/27 01:08:04;;;;;;;0.60;0.60;;;8.20;99.90;;;;;;5116608;28;20268;-77
2022/12/27 01:10:32;;;;;;;0.60;0.60;;;8.30;99.90;;;;;;5109733;28;20216;-78
2022/12/27 01:13:00;;;;;;;0.60;0.60;;;8.30;99.90;;;;;;5111128;28;20263;-78
2022/12/27 01:15:28;;;;;;;0.67;0.67;;;8.30;99.90;;;;;;5112642;28;20206;-77
2022/12/27 01:17:55;;;;;;;0.60;0.60;;;8.40;99.90;;;;;;5112007;28;20219;-77
2022/12/27 01:20:23;;;;;;;0.60;0.60;;;8.30;99.90;;;;;;5112054;28;20203;-78
2022/12/27 01:22:53;;;;;;;0.60;0.60;;;8.40;99.90;;;;;;5115013;28;20214;-77
2022/12/27 01:25:20;;;;;;;0.63;0.63;;;8.30;99.90;;;;;;5113344;28;20680;-78
2022/12/27 01:27:47;;;;;;;1.07;0.67;;;8.30;99.90;;;;;;5119658;28;20576;-78
2022/12/27 01:30:14;;;;;;;0.80;0.80;;;8.20;99.90;;;;;;5112427;28;20199;-77
2022/12/27 01:32:41;;;;;;;0.67;0.67;;;8.10;99.90;;;;;;5111160;28;20623;-77
2022/12/27 01:35:09;;;;;;;0.50;0.50;;;8.00;99.90;;;;;;5110270;28;20536;-77
2022/12/27 01:37:37;;;;;;;0.60;0.60;;;7.90;99.90;;;;;;5110148;28;20230;-78
2022/12/27 01:40:05;;;;;;;0.77;0.77;;;7.80;99.90;;;;;;5112069;28;20205;-77
2022/12/27 01:45:18;;;;;;;0.60;0.60;;;7.70;99.90;;;;;;5103293;28;20201;-76
2022/12/27 01:47:54;;;;;;;0.80;0.80;;;7.60;99.90;;;;;;5110913;28;20298;-77
2022/12/27 01:50:26;;;;;;;0.60;0.60;;;7.60;99.90;;;;;;5107745;28;20323;-77
2022/12/27 01:53:01;;;;;;;0.77;0.77;;;7.50;99.90;;;;;;5108275;28;20226;-77
2022/12/27 01:55:33;;;;;;;0.77;0.77;;;7.40;99.90;;;;;;5109189;28;20254;-78
2022/12/27 01:58:06;;;;;;;0.87;0.87;;;7.40;99.90;;;;;;5114004;28;20218;-75
2022/12/27 02:00:33;;;;;;;0.70;0.70;;;7.40;99.90;;;;;;5104105;28;20195;-78
2022/12/27 02:03:02;;;;;;;0.60;0.60;;;7.30;99.90;;;;;;5105223;28;20218;-78
2022/12/27 02:05:29;;;;;;;0.70;0.70;;;7.30;99.90;;;;;;5102259;28;20668;-77
2022/12/27 02:08:08;;;;;;;0.67;0.67;;;7.20;99.90;;;;;;5109833;28;20278;-77
2022/12/27 02:10:35;;;;;;;0.70;0.63;;;7.20;99.90;;;;;;5102410;28;20194;-76
2022/12/27 02:13:04;;;;;;;0.60;0.60;;;7.30;99.90;;;;;;5096511;28;20690;-76
2022/12/27 02:15:31;;;;;;;0.80;0.80;;;7.30;99.90;;;;;;5101519;28;20255;-76
2022/12/27 02:17:58;;;;;;;0.87;0.63;;;7.20;99.90;;;;;;5100712;28;20628;-77
2022/12/27 02:20:31;;;;;;;0.60;0.60;;;7.10;99.90;;;;;;5114809;28;20209;-78
2022/12/27 02:26:36;;;;;;;0.67;0.67;;;6.90;99.90;;;;;;5111230;28;20589;-76
2022/12/27 02:29:46;;;;;;;0.60;0.60;;;6.80;99.90;;;;;;5110872;28;20249;-77
2022/12/27 02:32:20;;;;;;;0.70;0.70;;;6.70;99.90;;;;;;5109958;28;20189;-77
2022/12/27 02:34:56;;;;;;;0.70;0.70;;;6.60;99.90;;;;;;5097765;28;20214;-76
2022/12/27 02:37:28;;;;;;;0.70;0.70;;;6.50;99.90;;;;;;5113198;28;20225;-76
2022/12/27 02:53:02;;;;;;;0.90;0.90;;;6.30;99.90;;;;;;5107071;28;20195;-76
2022/12/27 02:54:18;;;;;;;0.80;0.80;;;5.90;99.90;;;;;;5099805;28;20237;-77
2022/12/27 02:57:09;;;;;;;0.60;0.60;;;5.90;99.90;;;;;;5111544;28;20269;-77
2022/12/27 03:08:48;;;;;;;0.70;0.70;;;5.70;99.90;;;;;;5104327;28;20199;-78
2022/12/27 03:17:01;;;;;;;0.70;0.70;;;5.30;99.90;;;;;;5102100;28;20198;-77
2022/12/27 03:25:28;;;;;;;0.70;0.70;;;5.30;99.90;;;;;;5066140;28;20202;-78
2022/12/27 03:33:27;;;;;;;0.70;0.70;;;5.30;99.90;;;;;;5109394;28;20224;-78
2022/12/27 03:38:49;;;;;;;0.70;0.70;;;5.30;99.90;;;;;;5099727;28;20275;-78
2022/12/27 03:44:23;;;;;;;0.50;0.50;;;5.20;99.90;;;;;;5115409;28;20228;-78
2022/12/27 03:46:53;;;;;;;0.83;0.83;;;5.10;99.90;;;;;;5107112;28;20266;-79
2022/12/27 03:49:24;;;;;;;0.57;0.57;;;5.10;99.90;;;;;;5112732;28;20273;-77
2022/12/27 03:51:55;;;;;;;0.90;0.80;;;4.90;99.90;;;;;;5112661;28;20198;-77
2022/12/27 03:54:27;;;;;;;0.60;0.60;;;4.90;99.90;;;;;;5113570;28;20233;-76
2022/12/27 03:56:58;;;;;;;0.50;0.50;;;4.90;99.90;;;;;;5108343;28;20647;-78
2022/12/27 03:59:26;;;;;;;0.50;0.50;;;4.90;99.90;;;;;;5110338;28;20225;-77
2022/12/27 04:01:53;;;;;;;0.77;0.77;;;4.80;99.90;;;;;;5105218;28;20256;-76
2022/12/27 04:04:20;;;;;;;0.70;0.70;;;4.80;99.90;;;;;;5110031;28;20223;-77
2022/12/27 04:06:47;;;;;;;0.80;0.80;;;4.70;99.90;;;;;;5115663;28;20198;-77
2022/12/27 04:36:42;;;;;;;0.70;0.70;;;4.60;99.90;;;;;;5104591;28;20269;-78
2022/12/27 04:39:09;;;;;;;0.63;0.63;;;4.70;99.90;;;;;;5116799;28;20705;-78
2022/12/27 04:55:28;;;;;;;0.70;0.70;;;4.40;99.90;;;;;;5113082;28;20248;-79
2022/12/27 04:57:56;;;;;;;0.70;0.70;;;4.30;99.90;;;;;;5105782;28;20258;-77
2022/12/27 05:03:16;;;;;;;0.73;0.70;;;4.30;99.90;;;;;;5109449;28;20270;-76
2022/12/27 05:05:44;;;;;;;0.70;0.70;;;4.30;99.90;;;;;;5109813;28;20190;-78
2022/12/27 05:13:59;;;;;;;0.50;0.50;;;4.30;99.90;;;;;;5105332;28;20243;-77
2022/12/27 05:16:28;;;;;;;0.70;0.70;;;4.40;99.90;;;;;;5103581;28;20257;-76
2022/12/27 05:18:55;;;;;;;0.80;0.80;;;4.40;99.90;;;;;;5095474;28;20222;-78
2022/12/27 05:21:23;;;;;;;0.70;0.70;;;4.30;99.90;;;;;;5103715;28;20222;-78
2022/12/27 05:26:35;;;;;;;0.60;0.60;;;4.20;99.90;;;;;;5115374;28;20239;-76
2022/12/27 05:29:02;;;;;;;0.70;0.70;;;4.20;99.90;;;;;;5104413;28;20230;-77
2022/12/27 05:31:30;;;;;;;0.70;0.70;;;4.10;99.90;;;;;;5102448;28;20206;-76
2022/12/27 05:33:59;;;;;;;0.70;0.70;;;4.10;99.90;;;;;;5113470;28;20287;-78
2022/12/27 05:36:26;;;;;;;0.90;0.90;;;4.10;99.90;;;;;;5110157;28;20206;-78
2022/12/27 05:38:54;;;;;;;1.17;1.10;;;4.20;99.90;;;;;;5107209;28;20576;-77
2022/12/27 05:41:21;;;;;;;0.90;0.90;;;4.10;99.90;;;;;;5110128;28;20202;-78
2022/12/27 05:43:48;;;;;;;0.90;0.90;;;4.10;99.90;;;;;;5108035;28;20249;-76
2022/12/27 05:46:17;;;;;;;0.60;0.60;;;4.10;99.90;;;;;;5107590;28;20264;-78
2022/12/27 05:48:45;;;;;;;0.70;0.70;;;4.10;99.90;;;;;;5110047;28;20271;-76
2022/12/27 05:51:19;;;;;;;0.70;0.70;;;4.20;99.90;;;;;;5113651;28;20683;-77
2022/12/27 05:53:46;;;;;;;1.00;1.00;;;4.10;99.90;;;;;;5103308;28;20241;-77
2022/12/27 05:56:15;;;;;;;0.83;0.83;;;4.10;99.90;;;;;;5112904;28;20243;-76
2022/12/27 05:58:42;;;;;;;0.90;0.90;;;4.10;99.90;;;;;;5104853;28;20203;-77
2022/12/27 06:01:11;;;;;;;0.90;0.90;;;4.10;99.90;;;;;;5109146;28;20712;-77
2022/12/27 06:03:38;;;;;;;0.90;0.90;;;4.10;99.90;;;;;;5107421;28;20230;-77
2022/12/27 06:06:08;;;;;;;1.20;1.20;;;4.00;99.90;;;;;;5105269;28;20259;-76
2022/12/27 06:08:35;;;;;;;0.80;0.80;;;4.00;99.90;;;;;;5110331;28;20302;-77
2022/12/27 06:11:05;;;;;;;1.00;0.90;;;3.90;99.90;;;;;;5111979;28;20206;-77
2022/12/27 06:13:32;;;;;;;0.97;0.97;;;3.90;99.90;;;;;;5091201;28;20295;-76
2022/12/27 06:16:01;;;;;;;0.90;0.90;;;3.90;99.90;;;;;;5109154;28;20215;-77
2022/12/27 06:18:30;;;;;;;0.90;0.90;;;3.80;99.90;;;;;;5110199;28;20285;-78
2022/12/27 06:21:05;;;;;;;1.13;1.13;;;3.80;99.90;;;;;;5111847;28;20190;-78
2022/12/27 06:23:35;;;;;;;1.23;1.23;;;3.80;99.90;;;;;;5088968;28;20209;-77
2022/12/27 06:26:05;;;;;;;1.57;1.47;;;3.70;99.90;;;;;;5112211;28;20267;-76
2022/12/27 06:28:32;;;;;;;0.90;0.90;;;3.70;99.90;;;;;;5094461;28;20213;-76
2022/12/27 06:30:59;;;;;;;0.90;0.90;;;3.60;99.90;;;;;;5102501;28;20199;-76
2022/12/27 06:33:27;;;;;;;1.00;1.00;;;3.50;99.90;;;;;;5110108;28;20214;-76
2022/12/27 06:35:54;;;;;;;0.93;0.93;;;3.50;99.90;;;;;;5107573;28;20210;-78
2022/12/27 06:38:21;;;;;;;0.90;0.90;;;3.50;99.90;;;;;;5102411;28;20248;-76
2022/12/27 06:40:49;;;;;;;0.80;0.80;;;3.50;99.90;;;;;;5112104;28;20255;-80
2022/12/27 06:43:17;;;;;;;0.90;0.90;;;3.60;99.90;;;;;;5111619;28;20215;-76
2022/12/27 06:45:43;;;;;;;0.80;0.80;;;3.60;99.90;;;;;;5108900;28;20213;-76
2022/12/27 06:48:10;;;;;;;0.90;0.90;;;3.60;99.90;;;;;;5104267;28;20603;-75
2022/12/27 06:50:37;;;;;;;1.00;1.00;;;3.70;99.90;;;;;;5106595;28;20198;-75
2022/12/27 06:53:04;;;;;;;0.80;0.80;;;3.70;99.90;;;;;;5100666;28;20775;-76
2022/12/27 06:55:31;;;;;;;0.97;0.97;;;3.70;99.90;;;;;;5110941;28;20686;-75
2022/12/27 06:58:00;;;;;;;0.80;0.80;;;3.70;99.90;;;;;;5107989;28;20202;-76
2022/12/27 07:00:27;;;;;;;1.00;1.00;;;3.60;99.90;;;;;;5103156;28;20202;-75
2022/12/27 07:02:54;;;;;;;0.70;0.70;;;3.60;99.90;;;;;;5107982;28;20565;-75
2022/12/27 07:05:21;;;;;;;1.00;1.00;;;3.60;99.90;;;;;;5104556;28;20298;-76
2022/12/27 07:07:48;;;;;;;1.00;1.00;;;3.60;99.90;;;;;;5110230;28;20194;-74
2022/12/27 07:10:15;;;;;;;1.00;1.00;;;3.60;99.90;;;;;;5103987;28;20284;-76
2022/12/27 07:12:42;;;;;;;0.88;0.88;;;3.60;99.90;;;;;;5097832;28;20202;-74
2022/12/27 07:15:13;;;;;;;1.23;1.13;;;3.60;99.90;;;;;;5107352;28;20275;-76
2022/12/27 07:17:40;;;;;;;1.00;1.00;;;3.60;99.90;;;;;;5104934;28;20636;-75
2022/12/27 07:20:08;;;;;;;0.90;0.90;;;3.40;99.90;;;;;;5102421;28;20259;-75
2022/12/27 07:22:35;;;;;;;1.00;1.00;;;3.50;99.90;;;;;;5107169;28;20198;-74
2022/12/27 07:25:02;;;;;;;1.43;1.00;;;3.50;99.90;;;;;;5110405;28;20206;-75
2022/12/27 07:27:29;;;;;;;1.07;0.83;;;3.40;99.90;;;;;;5099230;28;20201;-75
2022/12/27 07:29:56;;;;;;;1.00;1.00;;;3.40;99.90;;;;;;5104257;28;20222;-74
2022/12/27 07:32:25;;;;;;;1.00;1.00;;;3.40;99.90;;;;;;5110760;28;20210;-74
2022/12/27 07:34:52;;;;;;;1.13;1.13;;;3.50;99.90;;;;;;5103137;28;20553;-76
2022/12/27 07:37:19;;;;;;;1.30;1.30;;;3.50;99.90;;;;;;5114121;28;20224;-75
2022/12/27 07:39:46;;;;;;;1.20;1.20;;;3.50;99.90;;;;;;5110602;28;20209;-74
2022/12/27 07:42:14;;;;;;;1.30;1.10;;;3.50;99.90;;;;;;5095784;28;20576;-74
2022/12/27 07:44:41;;;;;;;1.30;1.30;;;3.50;99.90;;;;;;5110737;28;20222;-75
2022/12/27 07:47:08;;;;;;;1.50;1.50;;;3.50;99.90;;;;;;5097654;28;20255;-76
2022/12/27 07:49:36;;;;;;;1.10;1.10;;;3.60;99.90;;;;;;5113090;28;20241;-74
2022/12/27 07:52:03;;;;;;;1.40;1.30;;;3.60;99.90;;;;;;5108116;28;20298;-74
2022/12/27 07:54:30;;;;;;;1.00;1.00;;;3.60;99.90;;;;;;5109434;28;20226;-75
2022/12/27 07:56:57;;;;;;;0.90;0.90;;;3.50;99.90;;;;;;5098846;28;20203;-76
2022/12/27 07:59:26;;;;;;;1.20;1.10;;;3.60;99.90;;;;;;5111189;28;20251;-75
2022/12/27 08:02:05;;;;;;;1.13;1.13;;;3.60;99.90;;;;;;5102519;28;20195;-76
2022/12/27 08:04:34;;;;;;;1.30;1.20;;;3.60;99.90;;;;;;5091484;28;20271;-75
2022/12/27 08:07:05;;;;;;;1.13;1.13;;;3.60;99.90;;;;;;5109392;28;20195;-75
2022/12/27 08:09:36;;;;;;;0.97;0.97;;;3.60;99.90;;;;;;5093585;28;20214;-74
2022/12/27 08:12:03;;;;;;;0.90;0.90;;;3.60;99.90;;;;;;5102252;28;20659;-75
2022/12/27 08:14:30;;;;;;;1.53;0.90;;;3.50;99.90;;;;;;5106497;28;20309;-75
2022/12/27 08:17:03;;;;;;;1.27;1.27;;;3.50;99.90;;;;;;5111982;28;20202;-74
2022/12/27 08:19:30;;;;;;;1.20;1.20;;;3.60;99.90;;;;;;5106350;28;20205;-75
2022/12/27 08:21:57;;;;;;;1.47;1.30;;;3.60;99.90;;;;;;5100290;28;20207;-76
2022/12/27 08:24:26;;;;;;;0.90;0.90;;;3.60;99.90;;;;;;5109309;28;20213;-76
2022/12/27 08:26:53;;;;;;;1.20;1.20;;;3.60;99.90;;;;;;5113523;28;20212;-77
2022/12/27 08:29:20;;;;;;;1.47;1.37;;;3.60;99.90;;;;;;5115119;28;20278;-76
2022/12/27 08:31:47;;;;;;;1.17;1.10;;;3.60;99.90;;;;;;5111783;28;20220;-75
2022/12/27 08:34:14;;;;;;;1.30;1.30;;;3.60;99.90;;;;;;5112317;28;20239;-75
2022/12/27 08:36:41;;;;;;;0.90;0.90;;;3.70;99.90;;;;;;5101989;28;20546;-75
2022/12/27 08:39:09;;;;;;;1.20;1.20;;;3.70;99.90;;;;;;5111443;28;20213;-76
2022/12/27 08:41:37;;;;;;;0.80;0.80;;;3.80;99.90;;;;;;5103723;28;20235;-75
2022/12/27 08:44:05;;;;;;;0.90;0.90;;;3.90;99.90;;;;;;5113553;28;20745;-75
2022/12/27 08:46:32;;;;;;;1.07;1.00;;;4.00;99.90;;;;;;5107681;28;20191;-74
2022/12/27 08:48:59;;;;;;;1.00;1.00;;;4.10;99.90;;;;;;5109416;28;20270;-76
2022/12/27 08:51:28;;;;;;;1.00;1.00;;;4.20;99.90;;;;;;5104432;28;20207;-76
2022/12/27 08:53:55;;;;;;;1.03;1.03;;;4.30;99.90;;;;;;5112910;28;20277;-76
2022/12/27 08:56:22;;;;;;;1.00;1.00;;;4.50;99.90;;;;;;5113455;28;20235;-77
2022/12/27 08:58:54;;;;;;;0.90;0.90;;;4.60;99.90;;;;;;5107524;28;20674;-77
2022/12/27 09:01:21;;;;;;;1.00;1.00;;;4.80;99.90;;;;;;5114241;28;20289;-77
2022/12/27 09:03:48;;;;;;;1.40;1.30;;;4.90;99.90;;;;;;5108494;28;20222;-76
2022/12/27 09:06:17;;;;;;;1.07;1.07;;;4.90;99.90;;;;;;5104269;28;20290;-76
2022/12/27 09:08:45;;;;;;;0.93;0.93;;;5.00;99.90;;;;;;5100976;28;20206;-76
2022/12/27 09:11:16;;;;;;;0.80;0.80;;;4.90;99.90;;;;;;5100872;28;20284;-78
2022/12/27 09:13:43;;;;;;;0.90;0.90;;;5.00;99.90;;;;;;5107223;28;20641;-76
2022/12/27 09:16:15;;;;;;;0.80;0.80;;;5.10;99.90;;;;;;5112881;28;20548;-74
2022/12/27 09:18:43;;;;;;;0.90;0.90;;;5.20;99.90;;;;;;5110899;28;20198;-74
2022/12/27 09:21:13;;;;;;;0.90;0.90;;;5.20;99.90;;;;;;5107576;28;20202;-74
2022/12/27 09:23:41;;;;;;;1.10;1.00;;;5.30;99.90;;;;;;5113237;28;20300;-74
2022/12/27 09:26:10;;;;;;;0.80;0.80;;;5.40;99.90;;;;;;5116716;28;20229;-75
2022/12/27 09:28:38;;;;;;;0.90;0.90;;;5.40;99.90;;;;;;5114378;28;20201;-74
2022/12/27 09:31:07;;;;;;;1.10;1.10;;;5.50;99.90;;;;;;5105629;28;20218;-75
2022/12/27 09:33:36;;;;;;;1.13;1.10;;;5.50;99.90;;;;;;5111711;28;20230;-74
2022/12/27 09:36:05;;;;;;;0.90;0.90;;;5.60;99.90;;;;;;5101723;28;20264;-74
2022/12/27 09:38:33;;;;;;;1.08;1.08;;;5.80;99.90;;;;;;5114626;28;20198;-75
2022/12/27 09:41:03;;;;;;;0.83;0.83;;;5.80;99.90;;;;;;5115045;28;20232;-74
2022/12/27 09:43:38;;;;;;;1.00;1.00;;;5.90;99.90;;;;;;5085497;28;20288;-75
2022/12/27 09:46:13;;;;;;;0.70;0.70;;;5.90;99.90;;;;;;5113935;28;20189;-75
2022/12/27 09:48:41;;;;;;;1.00;1.00;;;6.00;99.90;;;;;;5110394;28;20673;-75
2022/12/27 09:51:14;;;;;;;0.90;0.90;;;6.10;99.90;;;;;;5100456;28;20275;-75
2022/12/27 09:53:53;;;;;;;1.10;1.10;;;6.10;99.90;;;;;;5103071;28;20248;-75
2022/12/27 09:56:24;;;;;;;1.00;1.00;;;6.10;99.90;;;;;;5112627;28;20238;-76
2022/12/27 09:58:53;;;;;;;1.37;1.20;;;6.10;99.90;;;;;;5108763;28;20191;-75
2022/12/27 10:01:23;;;;;;;1.40;1.30;;;6.10;99.90;;;;;;5106659;28;20193;-74
2022/12/27 10:03:52;;;;;;;2.00;1.30;;;6.10;99.90;;;;;;5096897;28;20225;-75
2022/12/27 10:06:43;;;;;;;1.03;1.03;;;6.10;99.90;;;;;;5106202;28;20661;-75
2022/12/27 10:09:30;;;;;;;1.30;1.20;;;6.10;99.90;;;;;;5103876;28;20210;-74
2022/12/27 10:12:05;;;;;;;1.10;1.10;;;6.20;99.90;;;;;;5109275;28;20203;-76
2022/12/27 10:14:47;;;;;;;1.37;1.30;;;6.20;99.90;;;;;;5094639;28;20256;-74
2022/12/27 10:17:23;;;;;;;1.10;1.10;;;6.30;99.90;;;;;;5107884;28;20221;-74
2022/12/27 10:20:00;;;;;;;1.50;1.40;;;6.40;99.90;;;;;;5101803;28;20198;-76
2022/12/27 10:22:34;;;;;;;1.20;1.20;;;6.50;99.90;;;;;;5099722;28;20194;-77
2022/12/27 10:25:05;;;;;;;1.20;1.20;;;6.60;99.90;;;;;;5099820;28;20203;-74
2022/12/27 10:27:32;;;;;;;1.67;1.30;;;6.70;99.90;;;;;;5109146;28;20201;-74
2022/12/27 10:30:02;;;;;;;1.40;1.30;;;6.90;99.90;;;;;;5097887;28;20223;-74
2022/12/27 10:32:29;;;;;;;0.87;0.87;;;7.00;99.90;;;;;;5109860;28;20202;-75
2022/12/27 10:35:00;;;;;;;1.07;1.07;;;7.10;99.90;;;;;;5097527;28;20251;-75
2022/12/27 10:37:28;;;;;;;1.17;1.17;;;7.20;99.90;;;;;;5100463;28;20232;-75
2022/12/27 10:40:01;;;;;;;1.30;1.30;;;7.20;99.90;;;;;;5098728;28;20222;-74
2022/12/27 10:42:37;;;;;;;1.40;1.30;;;7.20;99.90;;;;;;5094870;28;20271;-74
2022/12/27 10:45:31;;;;;;;1.37;1.30;;;7.30;99.90;;;;;;5105507;28;20267;-75
2022/12/27 10:48:12;;;;;;;1.43;1.33;;;7.50;99.90;;;;;;5098648;28;20294;-76
2022/12/27 10:50:50;;;;;;;1.10;1.10;;;7.60;99.90;;;;;;5108225;28;20218;-74
2022/12/27 10:53:54;;;;;;;1.67;1.57;;;7.60;99.90;;;;;;5110839;28;20694;-75
2022/12/27 10:56:27;;;;;;;1.20;1.20;;;7.70;99.90;;;;;;5073086;28;20258;-74
2022/12/27 10:59:04;;;;;;;1.53;1.43;;;7.80;99.90;;;;;;5109706;28;20190;-75
2022/12/27 11:01:32;;;;;;;1.43;1.20;;;7.90;99.90;;;;;;5102877;28;20197;-75
2022/12/27 11:04:11;;;;;;;1.60;1.50;;;8.00;99.90;;;;;;5103598;28;20233;-75
2022/12/27 11:06:43;;;;;;;2.00;1.90;;;8.00;99.90;;;;;;5097358;28;20232;-75
2022/12/27 11:09:28;;;;;;;1.60;1.50;;;8.10;99.90;;;;;;5103591;28;20199;-75
2022/12/27 11:12:13;;;;;;;1.33;1.27;;;8.10;99.90;;;;;;5104907;28;20197;-74
2022/12/27 11:14:53;;;;;;;1.30;1.30;;;8.10;99.90;;;;;;5089382;28;20214;-74
2022/12/27 11:17:24;;;;;;;1.10;1.10;;;8.20;99.90;;;;;;5105457;28;20198;-74
2022/12/27 11:19:51;;;;;;;1.20;1.20;;;8.40;99.90;;;;;;5106929;28;20651;-75
2022/12/27 11:22:19;;;;;;;1.47;1.40;;;8.40;99.90;;;;;;5094003;28;20198;-75
2022/12/27 11:24:50;;;;;;;1.43;1.20;;;8.50;99.90;;;;;;5108529;28;20226;-75
2022/12/27 11:27:23;;;;;;;1.17;1.10;;;8.50;99.90;;;;;;5112567;28;20255;-75
2022/12/27 11:29:55;;;;;;;1.10;1.10;;;8.50;99.90;;;;;;5115169;28;20241;-74
2022/12/27 11:32:24;;;;;;;1.10;1.10;;;8.60;99.90;;;;;;5114788;28;20201;-74
2022/12/27 11:34:54;;;;;;;1.00;1.00;;;8.60;99.90;;;;;;5115137;28;20209;-74
2022/12/27 11:37:25;;;;;;;1.10;1.10;;;8.70;99.90;;;;;;5114554;28;20607;-75
2022/12/27 11:39:53;;;;;;;1.10;1.10;;;8.80;99.90;;;;;;5113012;28;20206;-75
2022/12/27 11:42:37;;;;;;;1.00;1.00;;;8.90;99.90;;;;;;5114048;28;20600;-75
2022/12/27 11:45:12;;;;;;;1.10;1.10;;;8.90;99.90;;;;;;5105657;28;20251;-75
2022/12/27 11:47:45;;;;;;;1.00;1.00;;;9.00;99.90;;;;;;5114238;28;20208;-75
2022/12/27 11:50:29;;;;;;;1.47;1.37;;;9.10;99.90;;;;;;5104423;28;20259;-75
2022/12/27 11:53:32;;;;;;;1.27;1.27;;;9.10;99.90;;;;;;5097874;28;20222;-74
2022/12/27 11:56:12;;;;;;;1.40;1.10;;;9.10;99.90;;;;;;5074978;28;20218;-75
2022/12/27 11:59:10;;;;;;;1.20;1.10;;;9.20;99.90;;;;;;5093851;28;20199;-74
2022/12/27 12:02:05;;;;;;;0.97;0.97;;;9.20;99.90;;;;;;5101568;28;20199;-74
2022/12/27 12:05:21;;;;;;;1.13;1.13;;;9.20;99.90;;;;;;5100445;28;20214;-76
2022/12/27 12:08:04;;;;;;;1.13;1.13;;;9.20;99.90;;;;;;5033781;28;20643;-77
2022/12/27 12:10:44;;;;;;;0.93;0.93;;;9.20;99.90;;;;;;5099930;28;20270;-75
2022/12/27 12:13:39;;;;;;;1.20;1.10;;;9.20;99.90;;;;;;5102748;28;20276;-75
2022/12/27 12:16:32;;;;;;;1.10;1.10;;;9.20;99.90;;;;;;5087449;28;20199;-75
2022/12/27 12:19:13;;;;;;;1.20;1.20;;;9.20;99.90;;;;;;5102563;28;20252;-75
2022/12/27 12:21:54;;;;;;;1.20;1.10;;;9.30;99.90;;;;;;5099609;28;20204;-74
2022/12/27 12:25:06;;;;;;;1.23;1.10;;;9.30;99.90;;;;;;5110263;28;20714;-76
2022/12/27 12:27:47;;;;;;;1.30;1.30;;;9.30;99.90;;;;;;5092389;28;20666;-75
2022/12/27 12:30:39;;;;;;;1.40;1.30;;;9.30;99.90;;;;;;5115771;28;20232;-75
2022/12/27 12:33:26;;;;;;;1.30;1.30;;;9.30;99.90;;;;;;5110460;28;20226;-76
2022/12/27 12:36:09;;;;;;;1.20;1.20;;;9.30;99.90;;;;;;5110558;28;20194;-74
2022/12/27 12:38:44;;;;;;;1.33;1.30;;;9.40;99.90;;;;;;5098371;28;20201;-74
2022/12/27 12:41:34;;;;;;;1.20;1.20;;;9.40;99.90;;;;;;5103861;28;20256;-73
2022/12/27 12:44:28;;;;;;;1.20;1.20;;;9.40;99.90;;;;;;5114262;28;20214;-76
2022/12/27 12:47:02;;;;;;;1.20;1.20;;;9.40;99.90;;;;;;5100737;28;20183;-74
2022/12/27 12:49:54;;;;;;;1.30;1.23;;;9.40;99.90;;;;;;5101017;28;20190;-74
2022/12/27 12:52:35;;;;;;;1.03;1.03;;;9.40;99.90;;;;;;5091579;28;20260;-75
2022/12/27 12:55:29;;;;;;;1.20;1.20;;;9.40;99.90;;;;;;5112697;28;20210;-78
2022/12/27 12:58:10;;;;;;;1.40;1.30;;;9.40;99.90;;;;;;5100799;28;20194;-75
2022/12/27 13:00:59;;;;;;;1.23;1.20;;;9.30;99.90;;;;;;5083959;28;20269;-75
2022/12/27 13:03:50;;;;;;;1.20;1.10;;;9.30;99.90;;;;;;5108388;28;20595;-74
2022/12/27 13:06:27;;;;;;;1.00;1.00;;;9.30;99.90;;;;;;5097062;28;20284;-74
2022/12/27 13:09:02;;;;;;;1.10;1.10;;;9.30;99.90;;;;;;5095326;28;20198;-74
2022/12/27 13:11:38;;;;;;;1.17;1.17;;;9.30;99.90;;;;;;5098707;28;20252;-75
2022/12/27 13:14:38;;;;;;;1.40;1.30;;;9.30;99.90;;;;;;5091304;28;20283;-75
2022/12/27 13:17:15;;;;;;;1.20;1.20;;;9.30;99.90;;;;;;5110448;28;20198;-76
2022/12/27 13:19:56;;;;;;;1.30;1.20;;;9.20;99.90;;;;;;5081435;28;20191;-74
2022/12/27 13:22:40;;;;;;;1.10;1.10;;;9.20;99.90;;;;;;5102749;28;20244;-74
2022/12/27 13:25:19;;;;;;;1.00;1.00;;;9.10;99.90;;;;;;5112048;28;20202;-77
2022/12/27 13:27:57;;;;;;;1.10;1.10;;;9.10;99.90;;;;;;5103634;28;20206;-74
2022/12/27 13:30:30;;;;;;;1.37;1.37;;;9.10;99.90;;;;;;5105306;28;20624;-74
2022/12/27 13:33:18;;;;;;;1.40;1.30;;;9.00;99.90;;;;;;5109408;28;20226;-74
2022/12/27 13:36:03;;;;;;;1.30;1.27;;;9.00;99.90;;;;;;5092884;28;20284;-76
2022/12/27 13:38:50;;;;;;;1.10;1.10;;;9.00;99.90;;;;;;5102907;28;20695;-74
2022/12/27 13:41:31;;;;;;;1.23;1.23;;;8.90;99.90;;;;;;5099493;28;20198;-74
2022/12/27 13:44:31;;;;;;;1.10;1.10;;;8.80;99.90;;;;;;5101970;28;20217;-73
2022/12/27 13:47:25;;;;;;;1.50;1.40;;;8.80;99.90;;;;;;5100561;28;20198;-74
2022/12/27 13:50:14;;;;;;;1.30;1.30;;;8.80;99.90;;;;;;5115502;28;20318;-73
2022/12/27 13:53:03;;;;;;;1.33;1.33;;;8.80;99.90;;;;;;5115179;28;20609;-74
2022/12/27 13:55:54;;;;;;;1.23;1.23;;;8.70;99.90;;;;;;5115162;28;20749;-73
2022/12/27 13:59:03;;;;;;;1.13;1.13;;;8.70;99.90;;;;;;5114458;28;20182;-74
2022/12/27 14:02:14;;;;;;;1.60;1.50;;;8.70;99.90;;;;;;5072326;28;20328;-74
2022/12/27 14:05:15;;;;;;;1.40;1.30;;;8.70;99.90;;;;;;5073202;28;20219;-74
2022/12/27 14:07:56;;;;;;;1.30;1.27;;;8.60;99.90;;;;;;5072539;28;20257;-74
2022/12/27 14:10:35;;;;;;;1.20;1.10;;;8.60;99.90;;;;;;5072160;28;20199;-74
2022/12/27 14:13:03;;;;;;;1.37;1.30;;;8.60;99.90;;;;;;5072939;28;20277;-73
2022/12/27 14:15:43;;;;;;;1.10;1.10;;;8.50;99.90;;;;;;5063017;28;20214;-74
2022/12/27 14:18:26;;;;;;;1.50;1.40;;;8.50;99.90;;;;;;5046130;28;20543;-75
2022/12/27 14:21:06;;;;;;;1.13;1.03;;;8.60;99.90;;;;;;5054706;28;20200;-76
2022/12/27 14:23:59;;;;;;;1.20;1.20;;;8.60;99.90;;;;;;5057289;28;20245;-75
2022/12/27 14:27:00;;;;;;;1.40;1.30;;;8.60;99.90;;;;;;5067267;28;20206;-75
2022/12/27 14:30:00;;;;;;;1.10;1.10;;;8.60;99.90;;;;;;5061907;28;20639;-76
2022/12/27 14:33:03;;;;;;;1.83;1.73;;;8.50;99.90;;;;;;5092309;28;20217;-74
2022/12/27 14:36:15;;;;;;;1.53;1.43;;;8.50;99.90;;;;;;5053265;28;20197;-75
2022/12/27 14:39:23;;;;;;;1.50;1.40;;;8.40;99.90;;;;;;5062173;28;20211;-75
2022/12/27 14:42:19;;;;;;;1.33;1.30;;;8.40;99.90;;;;;;5072469;28;20248;-74
2022/12/27 14:45:21;;;;;;;1.40;1.30;;;8.40;99.90;;;;;;5073250;28;20269;-74
2022/12/27 14:48:22;;;;;;;1.60;1.50;;;8.40;99.90;;;;;;5057379;28;20211;-73
2022/12/27 14:51:39;;;;;;;1.30;1.30;;;8.40;99.90;;;;;;5072726;28;20221;-74
2022/12/27 14:54:43;;;;;;;1.43;1.30;;;8.40;99.90;;;;;;5030036;28;20291;-78
2022/12/27 14:57:22;;;;;;;1.10;1.10;;;8.40;99.90;;;;;;5042602;28;20207;-76
2022/12/27 15:00:02;;;;;;;1.70;1.60;;;8.40;99.90;;;;;;5098238;28;20962;-76
2022/12/27 15:02:50;;;;;;;3.70;1.50;;;8.30;99.90;;;;;;5089121;28;20208;-76
2022/12/27 15:05:34;;;;;;;1.53;1.43;;;8.20;99.90;;;;;;5098338;28;20647;-77
2022/12/27 15:08:25;;;;;;;1.30;1.30;;;8.20;99.90;;;;;;5092963;28;20210;-77
2022/12/27 15:11:04;;;;;;;1.57;1.47;;;8.10;99.90;;;;;;5084878;28;20214;-76
2022/12/27 15:13:47;;;;;;;1.50;1.40;;;8.00;99.90;;;;;;5095923;28;20278;-78
2022/12/27 15:16:19;;;;;;;1.47;1.40;;;8.00;99.90;;;;;;5106510;28;20198;-77
2022/12/27 15:19:09;;;;;;;1.17;1.17;;;8.00;99.90;;;;;;5105856;28;20202;-77